Time,TemperatureF,DewpointF,PressureIn,WindDirection,WindDirectionDegrees,WindSpeedMPH,WindSpeedGustMPH,Humidity,HourlyPrecipIn,Conditions,Clouds,dailyrainin,SoftwareType,DateUTC
2013-01-03 00:00:00,16.9,16.9,29.35,North,4,0.0,0.0,100,0.00,,---,0.00,VWS V14.00,2013-01-03 05:00:00,
2013-01-03 00:02:00,16.9,16.9,29.35,North,4,0.0,0.0,100,0.00,,---,0.00,VWS V14.00,2013-01-03 05:02:00,
2013-01-03 00:03:00,16.9,16.9,29.35,North,4,0.0,0.0,100,0.00,,---,0.00,VWS V14.00,2013-01-03 05:03:00,
2013-01-03 00:08:00,17.4,17.4,29.35,North,4,0.0,0.0,100,0.00,,---,0.00,VWS V14.00,2013-01-03 05:08:00,
2013-01-03 00:13:00,17.6,17.6,29.35,North,4,0.0,0.0,100,0.00,,---,0.00,VWS V14.00,2013-01-03 05:13:00,
2013-01-03 00:18:00,17.6,17.6,29.35,North,4,0.0,0.0,100,0.00,,---,0.00,VWS V14.00,2013-01-03 05:18:00,
2013-01-03 00:23:00,16.9,16.9,29.35,North,4,0.0,0.0,100,0.00,,---,0.00,VWS V14.00,2013-01-03 05:23:00,
2013-01-03 00:28:00,16.7,16.7,29.35,North,4,0.0,0.0,100,0.00,,---,0.00,VWS V14.00,2013-01-03 05:28:00,
2013-01-03 00:33:00,16.7,16.7,29.35,North,4,0.0,0.0,100,0.00,,---,0.00,VWS V14.00,2013-01-03 05:33:00,
2013-01-03 00:38:00,16.7,16.7,29.35,North,4,0.0,0.0,100,0.00,,---,0.00,VWS V14.00,2013-01-03 05:38:00,
2013-01-03 00:43:00,16.5,16.5,29.35,North,4,0.0,0.0,100,0.00,,---,0.00,VWS V14.00,2013-01-03 05:43:00,
2013-01-03 00:48:00,16.5,16.5,29.35,North,4,0.0,0.0,100,0.00,,---,0.00,VWS V14.00,2013-01-03 05:48:00,
2013-01-03 00:53:00,15.8,15.8,29.35,North,4,0.0,0.0,100,0.00,,---,0.00,VWS V14.00,2013-01-03 05:53:00,
2013-01-03 00:58:00,15.1,15.1,29.35,North,4,0.0,0.0,100,0.00,,---,0.00,VWS V14.00,2013-01-03 05:58:00,
2013-01-03 01:03:00,15.1,15.1,29.35,North,4,0.0,0.0,100,0.00,,---,0.00,VWS V14.00,2013-01-03 06:03:00,
2013-01-03 01:08:00,15.1,15.1,29.35,North,4,0.0,0.0,100,0.00,,---,0.00,VWS V14.00,2013-01-03 06:08:00,
2013-01-03 01:13:00,15.3,15.3,29.35,North,4,0.0,0.0,100,0.00,,---,0.00,VWS V14.00,2013-01-03 06:13:00,
2013-01-03 01:18:00,15.1,15.1,29.35,North,3,0.0,0.0,100,0.00,,---,0.00,VWS V14.00,2013-01-03 06:18:00,
2013-01-03 01:23:00,15.3,15.3,29.35,North,4,0.0,0.0,100,0.00,,---,0.00,VWS V14.00,2013-01-03 06:23:00,
2013-01-03 01:28:00,15.4,15.4,29.35,North,4,0.0,0.0,100,0.00,,---,0.00,VWS V14.00,2013-01-03 06:28:00,
2013-01-03 01:33:00,15.3,15.3,29.35,North,4,0.0,0.0,100,0.00,,---,0.00,VWS V14.00,2013-01-03 06:33:00,
2013-01-03 01:38:00,14.9,14.9,29.35,North,4,0.0,0.0,100,0.00,,---,0.00,VWS V14.00,2013-01-03 06:38:00,
2013-01-03 01:43:00,14.9,14.9,29.35,North,4,0.0,0.0,100,0.00,,---,0.00,VWS V14.00,2013-01-03 06:43:00,
2013-01-03 01:48:00,14.9,14.9,29.35,North,4,0.0,0.0,100,0.00,,---,0.00,VWS V14.00,2013-01-03 06:48:00,
2013-01-03 01:53:00,14.9,14.9,29.35,North,4,0.0,0.0,100,0.00,,---,0.00,VWS V14.00,2013-01-03 06:53:00,
2013-01-03 01:58:00,15.1,15.1,29.35,North,4,0.0,0.0,100,0.00,,---,0.00,VWS V14.00,2013-01-03 06:58:00,
2013-01-03 02:03:00,15.1,15.1,29.35,North,4,0.0,0.0,100,0.00,,---,0.00,VWS V14.00,2013-01-03 07:03:00,
2013-01-03 02:08:00,15.4,15.4,29.35,North,4,0.0,0.0,100,0.00,,---,0.00,VWS V14.00,2013-01-03 07:08:00,
2013-01-03 02:13:00,15.4,15.4,29.35,North,4,0.0,0.0,100,0.00,,---,0.00,VWS V14.00,2013-01-03 07:13:00,
2013-01-03 02:18:00,15.6,15.6,29.35,North,4,0.0,0.0,100,0.00,,---,0.00,VWS V14.00,2013-01-03 07:18:00,
2013-01-03 02:23:00,15.3,15.3,29.35,North,4,0.0,0.0,100,0.00,,---,0.00,VWS V14.00,2013-01-03 07:23:00,
2013-01-03 02:28:00,15.3,15.3,29.35,North,4,0.0,0.0,100,0.00,,---,0.00,VWS V14.00,2013-01-03 07:28:00,
2013-01-03 02:33:00,15.1,15.1,29.35,North,4,0.0,0.0,100,0.00,,---,0.00,VWS V14.00,2013-01-03 07:33:00,
2013-01-03 02:38:00,15.1,15.1,29.35,North,4,0.0,0.0,100,0.00,,---,0.00,VWS V14.00,2013-01-03 07:38:00,
2013-01-03 02:43:00,15.1,15.1,29.35,North,4,0.0,0.0,100,0.00,,---,0.00,VWS V14.00,2013-01-03 07:43:00,
2013-01-03 02:48:00,15.1,15.1,29.35,North,4,0.0,0.0,100,0.00,,---,0.00,VWS V14.00,2013-01-03 07:48:00,
2013-01-03 02:53:00,15.4,15.4,29.35,North,4,0.0,0.0,100,0.00,,---,0.00,VWS V14.00,2013-01-03 07:53:00,
2013-01-03 02:58:00,15.8,15.8,29.35,North,4,0.0,0.0,100,0.00,,---,0.00,VWS V14.00,2013-01-03 07:58:00,
2013-01-03 03:03:00,16.2,16.2,29.35,North,353,0.0,0.0,100,0.00,,---,0.00,VWS V14.00,2013-01-03 08:03:00,
2013-01-03 03:08:00,16.3,16.3,29.32,North,353,0.0,0.0,100,0.00,,---,0.00,VWS V14.00,2013-01-03 08:08:00,
2013-01-03 03:13:00,16.3,16.3,29.32,NNW,337,0.0,0.0,100,0.00,,---,0.00,VWS V14.00,2013-01-03 08:13:00,
2013-01-03 03:18:00,16.9,16.9,29.32,WNW,300,0.0,0.0,100,0.00,,---,0.00,VWS V14.00,2013-01-03 08:18:00,
2013-01-03 03:23:00,17.2,17.2,29.32,SSW,209,0.0,0.0,100,0.00,,---,0.00,VWS V14.00,2013-01-03 08:23:00,
2013-01-03 03:28:00,17.6,17.6,29.32,SSW,203,0.0,0.0,100,0.00,,---,0.00,VWS V14.00,2013-01-03 08:28:00,
2013-01-03 03:33:00,17.8,17.8,29.32,SSW,199,0.0,0.0,100,0.00,,---,0.00,VWS V14.00,2013-01-03 08:33:00,
2013-01-03 03:38:00,17.6,17.6,29.32,SSW,199,0.0,0.0,100,0.00,,---,0.00,VWS V14.00,2013-01-03 08:38:00,
2013-01-03 03:43:00,17.4,17.4,29.32,SSW,199,0.0,0.0,100,0.00,,---,0.00,VWS V14.00,2013-01-03 08:43:00,
2013-01-03 03:48:00,17.4,17.4,29.32,SSW,199,0.0,0.0,100,0.00,,---,0.00,VWS V14.00,2013-01-03 08:48:00,
2013-01-03 03:53:00,16.5,16.5,29.32,SSW,199,0.0,0.0,100,0.00,,---,0.00,VWS V14.00,2013-01-03 08:53:00,
2013-01-03 03:58:00,16.5,16.5,29.32,SSW,199,0.0,0.0,100,0.00,,---,0.00,VWS V14.00,2013-01-03 08:58:00,
2013-01-03 04:03:00,15.8,15.8,29.32,SSW,199,0.0,0.0,100,0.00,,---,0.00,VWS V14.00,2013-01-03 09:03:00,
2013-01-03 04:08:00,15.6,15.6,29.32,SSW,199,0.0,0.0,100,0.00,,---,0.00,VWS V14.00,2013-01-03 09:08:00,
2013-01-03 04:13:00,15.8,15.8,29.32,SSW,199,0.0,0.0,100,0.00,,---,0.00,VWS V14.00,2013-01-03 09:13:00,
2013-01-03 04:18:00,16.0,16.0,29.32,SSW,199,0.0,0.0,100,0.00,,---,0.00,VWS V14.00,2013-01-03 09:18:00,
2013-01-03 04:23:00,16.0,16.0,29.32,SSW,199,0.0,0.0,100,0.00,,---,0.00,VWS V14.00,2013-01-03 09:23:00,
2013-01-03 04:28:00,16.2,16.2,29.32,SSW,199,0.0,0.0,100,0.00,,---,0.00,VWS V14.00,2013-01-03 09:28:00,
2013-01-03 04:33:00,16.2,16.2,29.32,SSW,199,0.0,0.0,100,0.00,,---,0.00,VWS V14.00,2013-01-03 09:33:00,
2013-01-03 04:38:00,16.2,16.2,29.32,SSW,199,0.0,0.0,100,0.00,,---,0.00,VWS V14.00,2013-01-03 09:38:00,
2013-01-03 04:43:00,16.0,16.0,29.32,SSW,199,0.0,0.0,100,0.00,,---,0.00,VWS V14.00,2013-01-03 09:43:00,
2013-01-03 04:48:00,15.8,15.8,29.32,SSW,199,0.0,0.0,100,0.00,,---,0.00,VWS V14.00,2013-01-03 09:48:00,
2013-01-03 04:53:00,15.8,15.8,29.32,SSW,199,0.0,0.0,100,0.00,,---,0.00,VWS V14.00,2013-01-03 09:53:00,
2013-01-03 04:58:00,15.3,15.3,29.32,SSW,199,0.0,0.0,100,0.00,,---,0.00,VWS V14.00,2013-01-03 09:58:00,
2013-01-03 05:03:00,15.4,15.4,29.32,SSW,199,0.0,0.0,100,0.00,,---,0.00,VWS V14.00,2013-01-03 10:03:00,
2013-01-03 05:08:00,15.1,15.1,29.32,SSW,199,0.0,0.0,100,0.00,,---,0.00,VWS V14.00,2013-01-03 10:08:00,
2013-01-03 05:13:00,15.1,15.1,29.35,SSW,199,0.0,0.0,100,0.00,,---,0.00,VWS V14.00,2013-01-03 10:13:00,
2013-01-03 05:18:00,15.1,15.1,29.35,SSW,199,0.0,0.0,100,0.00,,---,0.00,VWS V14.00,2013-01-03 10:18:00,
2013-01-03 05:23:00,14.5,14.5,29.35,SSW,199,0.0,0.0,100,0.00,,---,0.00,VWS V14.00,2013-01-03 10:23:00,
2013-01-03 05:28:00,14.5,14.5,29.35,SSW,199,0.0,0.0,100,0.00,,---,0.00,VWS V14.00,2013-01-03 10:28:00,
2013-01-03 05:33:00,14.4,14.4,29.35,SSW,199,0.0,0.0,100,0.00,,---,0.00,VWS V14.00,2013-01-03 10:33:00,
2013-01-03 05:38:00,14.4,14.4,29.35,SSW,199,0.0,0.0,100,0.00,,---,0.00,VWS V14.00,2013-01-03 10:38:00,
2013-01-03 05:43:00,14.4,14.4,29.35,SSW,198,0.0,0.0,100,0.00,,---,0.00,VWS V14.00,2013-01-03 10:43:00,
2013-01-03 05:48:00,14.4,14.4,29.35,SSW,199,0.0,0.0,100,0.00,,---,0.00,VWS V14.00,2013-01-03 10:48:00,
2013-01-03 05:53:00,14.5,14.5,29.35,SSW,199,0.0,0.0,100,0.00,,---,0.00,VWS V14.00,2013-01-03 10:53:00,
2013-01-03 05:58:00,14.9,14.9,29.35,SSW,199,0.0,0.0,100,0.00,,---,0.00,VWS V14.00,2013-01-03 10:58:00,
2013-01-03 06:03:00,15.1,15.1,29.35,SSW,210,0.0,0.0,100,0.00,,---,0.00,VWS V14.00,2013-01-03 11:03:00,
2013-01-03 06:08:00,15.8,15.8,29.35,SSW,213,0.0,0.0,100,0.00,,---,0.00,VWS V14.00,2013-01-03 11:08:00,
2013-01-03 06:13:00,15.8,15.8,29.35,SSW,213,0.0,0.0,100,0.00,,---,0.00,VWS V14.00,2013-01-03 11:13:00,
2013-01-03 06:18:00,17.1,17.1,29.35,SW,224,0.0,0.0,100,0.00,,---,0.00,VWS V14.00,2013-01-03 11:18:00,
2013-01-03 06:23:00,17.1,17.1,29.35,SW,224,0.0,0.0,100,0.00,,---,0.00,VWS V14.00,2013-01-03 11:23:00,
2013-01-03 06:28:00,17.1,17.1,29.35,SW,225,0.0,0.0,100,0.00,,---,0.00,VWS V14.00,2013-01-03 11:28:00,
2013-01-03 06:33:00,16.9,16.9,29.35,SW,225,0.0,0.0,100,0.00,,---,0.00,VWS V14.00,2013-01-03 11:33:00,
2013-01-03 06:38:00,16.9,16.9,29.35,SW,217,0.0,0.0,100,0.00,,---,0.00,VWS V14.00,2013-01-03 11:38:00,
2013-01-03 06:43:00,17.1,17.1,29.35,SW,219,0.0,0.0,100,0.00,,---,0.00,VWS V14.00,2013-01-03 11:43:00,
2013-01-03 06:48:00,17.6,17.6,29.35,SSW,207,0.0,0.0,100,0.00,,---,0.00,VWS V14.00,2013-01-03 11:48:00,
2013-01-03 06:53:00,17.6,17.6,29.35,SSW,212,4.0,4.0,100,0.00,,---,0.00,VWS V14.00,2013-01-03 11:53:00,
2013-01-03 06:58:00,17.8,17.8,29.35,SSW,209,3.6,3.6,100,0.00,,---,0.00,VWS V14.00,2013-01-03 11:58:00,
2013-01-03 07:03:00,17.8,17.8,29.35,SW,222,2.7,3.1,100,0.00,,---,0.00,VWS V14.00,2013-01-03 12:03:00,
2013-01-03 07:08:00,18.1,18.1,29.35,SSW,204,2.7,3.1,100,0.00,,---,0.00,VWS V14.00,2013-01-03 12:08:00,
2013-01-03 07:13:00,18.3,18.3,29.35,SW,218,2.7,3.1,100,0.00,,---,0.00,VWS V14.00,2013-01-03 12:13:00,
2013-01-03 07:18:00,18.3,18.3,29.35,SW,218,3.6,3.6,100,0.00,,---,0.00,VWS V14.00,2013-01-03 12:18:00,
2013-01-03 07:23:00,18.3,18.3,29.35,SW,214,3.6,3.6,100,0.00,,---,0.00,VWS V14.00,2013-01-03 12:23:00,
2013-01-03 07:28:00,18.3,18.3,29.35,SW,232,2.7,2.7,100,0.00,,---,0.00,VWS V14.00,2013-01-03 12:28:00,
2013-01-03 07:33:00,18.5,18.5,29.35,SW,223,2.2,3.1,100,0.00,,---,0.00,VWS V14.00,2013-01-03 12:33:00,
2013-01-03 07:38:00,18.5,18.5,29.35,SW,214,0.0,0.0,100,0.00,,---,0.00,VWS V14.00,2013-01-03 12:38:00,
2013-01-03 07:43:00,18.7,18.7,29.35,SW,226,0.0,0.0,100,0.00,,---,0.00,VWS V14.00,2013-01-03 12:43:00,
2013-01-03 07:48:00,18.5,18.5,29.35,SW,232,0.0,0.0,100,0.00,,---,0.00,VWS V14.00,2013-01-03 12:48:00,
2013-01-03 07:53:00,18.5,18.5,29.35,SW,230,0.0,0.0,100,0.00,,---,0.00,VWS V14.00,2013-01-03 12:53:00,
2013-01-03 07:58:00,18.1,18.1,29.35,SW,220,0.0,0.0,100,0.00,,---,0.00,VWS V14.00,2013-01-03 12:58:00,
2013-01-03 08:03:00,17.8,17.8,29.35,SW,220,0.0,0.0,100,0.00,,---,0.00,VWS V14.00,2013-01-03 13:03:00,
2013-01-03 08:08:00,18.3,18.3,29.35,SW,226,2.7,2.7,100,0.00,,---,0.00,VWS V14.00,2013-01-03 13:08:00,
2013-01-03 08:13:00,18.5,18.5,29.35,SW,214,3.1,3.1,100,0.00,,---,0.00,VWS V14.00,2013-01-03 13:13:00,
2013-01-03 08:18:00,18.5,18.5,29.35,SW,226,3.1,3.1,100,0.00,,---,0.00,VWS V14.00,2013-01-03 13:18:00,
2013-01-03 08:23:00,19.2,19.2,29.35,SW,228,3.6,3.6,100,0.00,,---,0.00,VWS V14.00,2013-01-03 13:23:00,
2013-01-03 08:28:00,19.2,19.2,29.35,SW,223,3.6,3.6,100,0.00,,---,0.00,VWS V14.00,2013-01-03 13:28:00,
2013-01-03 08:33:00,20.3,20.3,29.35,SW,223,5.4,5.4,100,0.00,,---,0.00,VWS V14.00,2013-01-03 13:33:00,
2013-01-03 08:38:00,20.3,20.3,29.35,SW,214,2.7,2.7,100,0.00,,---,0.00,VWS V14.00,2013-01-03 13:38:00,
2013-01-03 08:43:00,21.0,21.0,29.35,SW,224,3.1,3.1,100,0.00,,---,0.00,VWS V14.00,2013-01-03 13:43:00,
2013-01-03 08:48:00,21.0,21.0,29.35,WSW,258,0.0,0.0,100,0.00,,---,0.00,VWS V14.00,2013-01-03 13:48:00,
2013-01-03 08:53:00,21.2,21.2,29.38,WSW,255,2.7,2.7,100,0.00,,---,0.00,VWS V14.00,2013-01-03 13:53:00,
2013-01-03 08:58:00,21.2,21.2,29.38,West,260,2.7,3.1,100,0.00,,---,0.00,VWS V14.00,2013-01-03 13:58:00,
2013-01-03 09:03:00,21.7,21.7,29.38,SSW,206,4.0,4.0,100,0.00,,---,0.00,VWS V14.00,2013-01-03 14:03:00,
2013-01-03 09:08:00,22.3,22.3,29.38,SW,233,3.1,3.6,100,0.00,,---,0.00,VWS V14.00,2013-01-03 14:08:00,
2013-01-03 09:13:00,22.3,22.3,29.38,SSW,210,3.1,3.1,100,0.00,,---,0.00,VWS V14.00,2013-01-03 14:13:00,
2013-01-03 09:18:00,22.8,22.8,29.38,SW,230,3.6,3.6,100,0.00,,---,0.00,VWS V14.00,2013-01-03 14:18:00,
2013-01-03 09:23:00,22.8,22.8,29.38,WSW,246,4.0,4.0,100,0.00,,---,0.00,VWS V14.00,2013-01-03 14:23:00,
2013-01-03 09:28:00,23.5,23.5,29.38,SW,225,3.6,4.0,100,0.00,,---,0.00,VWS V14.00,2013-01-03 14:28:00,
2013-01-03 09:33:00,23.9,23.9,29.38,SW,233,4.0,5.4,100,0.00,,---,0.00,VWS V14.00,2013-01-03 14:33:00,
2013-01-03 09:38:00,24.8,24.8,29.38,SW,226,2.7,2.7,100,0.00,,---,0.00,VWS V14.00,2013-01-03 14:38:00,
2013-01-03 09:43:00,25.2,25.2,29.38,WSW,248,4.0,4.0,100,0.00,,---,0.00,VWS V14.00,2013-01-03 14:43:00,
2013-01-03 09:48:00,25.2,25.2,29.38,WNW,296,5.8,5.8,100,0.00,,---,0.00,VWS V14.00,2013-01-03 14:48:00,
2013-01-03 09:53:00,26.1,26.1,29.35,West,273,4.5,4.5,100,0.00,,---,0.00,VWS V14.00,2013-01-03 14:53:00,
2013-01-03 09:58:00,26.1,26.1,29.35,West,261,5.8,5.8,100,0.00,,---,0.00,VWS V14.00,2013-01-03 14:58:00,
2013-01-03 10:03:00,26.1,26.1,29.35,West,277,5.4,5.4,100,0.00,,---,0.00,VWS V14.00,2013-01-03 15:03:00,
2013-01-03 10:08:00,26.1,26.1,29.38,WNW,293,2.7,3.6,100,0.00,,---,0.00,VWS V14.00,2013-01-03 15:08:00,
2013-01-03 10:13:00,27.5,27.5,29.38,SSW,212,3.6,3.6,100,0.00,,---,0.00,VWS V14.00,2013-01-03 15:13:00,
2013-01-03 10:18:00,27.9,27.9,29.38,WSW,253,6.3,6.3,100,0.00,,---,0.00,VWS V14.00,2013-01-03 15:18:00,
2013-01-03 10:23:00,28.0,28.0,29.38,SSW,212,3.1,3.1,100,0.00,,---,0.00,VWS V14.00,2013-01-03 15:23:00,
2013-01-03 10:28:00,28.6,28.6,29.38,WNW,293,4.0,5.4,100,0.00,,---,0.00,VWS V14.00,2013-01-03 15:28:00,
2013-01-03 10:33:00,28.6,28.6,29.38,West,268,3.1,4.0,100,0.00,,---,0.00,VWS V14.00,2013-01-03 15:33:00,
2013-01-03 10:38:00,29.5,29.5,29.38,WSW,242,5.8,5.8,100,0.00,,---,0.00,VWS V14.00,2013-01-03 15:38:00,
2013-01-03 10:43:00,29.7,29.7,29.38,WNW,294,3.6,3.6,100,0.00,,---,0.00,VWS V14.00,2013-01-03 15:43:00,
2013-01-03 10:48:00,29.7,29.7,29.38,West,266,3.1,3.1,100,0.00,,---,0.00,VWS V14.00,2013-01-03 15:48:00,
2013-01-03 10:53:00,29.8,29.8,29.38,West,268,2.2,2.2,100,0.00,,---,0.00,VWS V14.00,2013-01-03 15:53:00,
2013-01-03 10:58:00,30.6,30.6,29.38,WSW,251,2.2,4.9,100,0.00,,---,0.00,VWS V14.00,2013-01-03 15:58:00,
2013-01-03 11:03:00,32.0,32.0,29.38,SW,236,3.6,3.6,100,0.00,,---,0.00,VWS V14.00,2013-01-03 16:03:00,
2013-01-03 11:08:00,32.0,32.0,29.38,West,266,5.4,5.4,100,0.00,,---,0.00,VWS V14.00,2013-01-03 16:08:00,
2013-01-03 11:13:00,32.2,32.2,29.38,SSW,213,3.1,3.1,100,0.00,,---,0.00,VWS V14.00,2013-01-03 16:13:00,
2013-01-03 11:18:00,33.3,33.3,29.38,WSW,256,5.8,5.8,100,0.00,,---,0.00,VWS V14.00,2013-01-03 16:18:00,
2013-01-03 11:23:00,33.3,33.3,29.38,WNW,287,6.3,6.3,100,0.00,,---,0.00,VWS V14.00,2013-01-03 16:23:00,
2013-01-03 11:28:00,32.9,32.9,29.38,SW,229,5.8,5.8,100,0.00,,---,0.00,VWS V14.00,2013-01-03 16:28:00,
2013-01-03 11:33:00,33.1,33.1,29.38,WSW,258,6.3,6.3,100,0.00,,---,0.00,VWS V14.00,2013-01-03 16:33:00,
2013-01-03 11:38:00,33.3,33.3,29.38,WNW,298,5.8,5.8,100,0.00,,---,0.00,VWS V14.00,2013-01-03 16:38:00,
2013-01-03 11:43:00,33.3,33.3,29.38,SW,222,4.9,4.9,100,0.00,,---,0.00,VWS V14.00,2013-01-03 16:43:00,
2013-01-03 11:48:00,33.3,33.3,29.38,WSW,237,3.6,5.4,100,0.00,,---,0.00,VWS V14.00,2013-01-03 16:48:00,
2013-01-03 11:53:00,34.2,34.2,29.35,West,273,6.3,6.3,100,0.00,,---,0.00,VWS V14.00,2013-01-03 16:53:00,
2013-01-03 11:58:00,33.8,33.8,29.35,West,276,5.8,5.8,100,0.00,,---,0.00,VWS V14.00,2013-01-03 16:58:00,
2013-01-03 12:03:00,34.3,34.3,29.35,West,270,4.0,4.0,100,0.00,,---,0.00,VWS V14.00,2013-01-03 17:03:00,
2013-01-03 12:08:00,34.5,34.5,29.35,SW,224,4.9,4.9,100,0.00,,---,0.00,VWS V14.00,2013-01-03 17:08:00,
2013-01-03 12:13:00,34.5,34.5,29.35,SW,231,4.9,4.9,100,0.00,,---,0.00,VWS V14.00,2013-01-03 17:13:00,
2013-01-03 12:18:00,35.1,35.1,29.35,WNW,299,5.4,5.4,100,0.00,,---,0.00,VWS V14.00,2013-01-03 17:18:00,
2013-01-03 12:23:00,35.1,35.1,29.35,SSW,211,7.6,7.6,100,0.00,,---,0.00,VWS V14.00,2013-01-03 17:23:00,
2013-01-03 12:28:00,35.8,35.8,29.35,SW,221,5.8,5.8,100,0.00,,---,0.00,VWS V14.00,2013-01-03 17:28:00,
2013-01-03 12:33:00,35.8,35.8,29.35,SW,227,5.4,6.3,100,0.00,,---,0.00,VWS V14.00,2013-01-03 17:33:00,
2013-01-03 12:38:00,35.8,35.8,29.35,SW,236,5.8,5.8,100,0.00,,---,0.00,VWS V14.00,2013-01-03 17:38:00,
2013-01-03 12:43:00,36.5,36.5,29.35,SSW,205,8.1,8.1,100,0.00,,---,0.00,VWS V14.00,2013-01-03 17:43:00,
2013-01-03 12:48:00,36.7,36.7,29.35,SSW,203,6.3,6.3,100,0.00,,---,0.00,VWS V14.00,2013-01-03 17:48:00,
2013-01-03 12:53:00,37.8,37.8,29.35,WSW,251,3.1,3.6,100,0.00,,---,0.00,VWS V14.00,2013-01-03 17:53:00,
2013-01-03 12:58:00,37.9,37.9,29.35,WSW,240,5.8,5.8,100,0.00,,---,0.00,VWS V14.00,2013-01-03 17:58:00,
2013-01-03 13:03:00,36.9,36.9,29.35,SW,222,5.4,5.4,100,0.00,,---,0.00,VWS V14.00,2013-01-03 18:03:00,
2013-01-03 13:08:00,36.9,36.9,29.35,SW,220,4.9,4.9,100,0.00,,---,0.00,VWS V14.00,2013-01-03 18:08:00,
2013-01-03 13:13:00,37.4,37.4,29.35,WSW,251,2.7,2.7,100,0.00,,---,0.00,VWS V14.00,2013-01-03 18:13:00,
2013-01-03 13:18:00,38.1,38.1,29.35,WSW,256,4.0,4.0,100,0.00,,---,0.00,VWS V14.00,2013-01-03 18:18:00,
2013-01-03 13:23:00,38.7,38.7,29.35,SW,226,5.8,7.6,100,0.00,,---,0.00,VWS V14.00,2013-01-03 18:23:00,
2013-01-03 13:28:00,38.7,38.7,29.35,WSW,255,5.4,5.4,100,0.00,,---,0.00,VWS V14.00,2013-01-03 18:28:00,
2013-01-03 13:33:00,38.7,38.7,29.35,West,261,6.3,6.3,100,0.00,,---,0.00,VWS V14.00,2013-01-03 18:33:00,
2013-01-03 13:38:00,38.3,38.3,29.35,WNW,294,4.9,5.8,100,0.00,,---,0.00,VWS V14.00,2013-01-03 18:38:00,
2013-01-03 13:43:00,38.3,38.3,29.35,SSW,211,8.7,8.7,100,0.00,,---,0.00,VWS V14.00,2013-01-03 18:43:00,
2013-01-03 13:48:00,37.6,37.6,29.35,West,278,3.1,3.1,100,0.00,,---,0.00,VWS V14.00,2013-01-03 18:48:00,
2013-01-03 13:53:00,37.0,37.0,29.35,West,281,3.6,3.6,100,0.00,,---,0.00,VWS V14.00,2013-01-03 18:53:00,
2013-01-03 13:58:00,35.6,35.6,29.35,West,268,5.4,5.4,100,0.00,,---,0.00,VWS V14.00,2013-01-03 18:58:00,
2013-01-03 14:03:00,34.7,34.7,29.35,West,262,4.0,4.0,100,0.00,,---,0.00,VWS V14.00,2013-01-03 19:03:00,
2013-01-03 14:08:00,34.7,34.7,29.35,West,275,5.4,6.3,100,0.00,,---,0.00,VWS V14.00,2013-01-03 19:08:00,
2013-01-03 14:13:00,36.3,36.3,29.35,WNW,297,8.1,8.1,100,0.00,,---,0.00,VWS V14.00,2013-01-03 19:13:00,
2013-01-03 14:18:00,36.3,36.3,29.35,WSW,241,4.0,4.0,100,0.00,,---,0.00,VWS V14.00,2013-01-03 19:18:00,
2013-01-03 14:55:00,36.3,36.3,29.35,NNW,340,3.1,3.6,100,0.00,,---,0.00,VWS V14.00,2013-01-03 19:55:00,
2013-01-03 17:11:00,31.5,31.5,29.38,West,265,0.0,0.0,100,0.00,,---,0.00,VWS V14.00,2013-01-03 22:11:00,
2013-01-03 17:16:00,31.3,31.3,29.38,West,267,0.0,0.0,100,0.00,,---,0.00,VWS V14.00,2013-01-03 22:16:00,
2013-01-03 17:21:00,31.3,31.3,29.38,West,279,0.0,0.0,100,0.00,,---,0.00,VWS V14.00,2013-01-03 22:21:00,
2013-01-03 17:26:00,31.1,31.1,29.38,WSW,246,0.0,0.0,100,0.00,,---,0.00,VWS V14.00,2013-01-03 22:26:00,
2013-01-03 17:31:00,31.1,31.1,29.38,West,271,0.0,0.0,100,0.00,,---,0.00,VWS V14.00,2013-01-03 22:31:00,
2013-01-03 17:36:00,31.1,31.1,29.41,West,271,0.0,0.0,100,0.00,,---,0.00,VWS V14.00,2013-01-03 22:36:00,
2013-01-03 17:41:00,31.1,31.1,29.41,West,269,0.0,0.0,100,0.00,,---,0.00,VWS V14.00,2013-01-03 22:41:00,
2013-01-03 17:46:00,31.1,31.1,29.41,West,269,0.0,0.0,100,0.00,,---,0.00,VWS V14.00,2013-01-03 22:46:00,
2013-01-03 17:51:00,30.9,30.9,29.41,West,269,0.0,0.0,100,0.00,,---,0.00,VWS V14.00,2013-01-03 22:51:00,
2013-01-03 17:56:00,30.9,30.9,29.41,West,269,0.0,0.0,100,0.00,,---,0.00,VWS V14.00,2013-01-03 22:56:00,
2013-01-03 18:01:00,31.1,31.1,29.41,West,269,0.0,0.0,100,0.00,,---,0.00,VWS V14.00,2013-01-03 23:01:00,
2013-01-03 18:06:00,31.1,31.1,29.41,West,275,2.7,3.6,100,0.00,,---,0.00,VWS V14.00,2013-01-03 23:06:00,
2013-01-03 18:11:00,31.3,31.3,29.41,WSW,258,3.1,3.6,100,0.00,,---,0.00,VWS V14.00,2013-01-03 23:11:00,
2013-01-03 18:16:00,31.5,31.5,29.41,West,266,0.0,3.1,100,0.00,,---,0.00,VWS V14.00,2013-01-03 23:16:00,
2013-01-03 18:21:00,31.5,31.5,29.41,West,265,3.6,4.0,100,0.00,,---,0.00,VWS V14.00,2013-01-03 23:21:00,
2013-01-03 18:26:00,31.6,31.6,29.41,West,281,2.7,3.6,100,0.00,,---,0.00,VWS V14.00,2013-01-03 23:26:00,
2013-01-03 18:31:00,31.6,31.6,29.41,West,268,2.7,3.6,100,0.00,,---,0.00,VWS V14.00,2013-01-03 23:31:00,
2013-01-03 18:36:00,31.6,31.6,29.41,West,267,2.7,4.0,100,0.00,,---,0.00,VWS V14.00,2013-01-03 23:36:00,
2013-01-03 18:41:00,31.6,31.6,29.41,WSW,255,3.1,4.0,100,0.00,,---,0.00,VWS V14.00,2013-01-03 23:41:00,
2013-01-03 18:46:00,31.6,31.6,29.41,West,268,3.1,4.0,100,0.00,,---,0.00,VWS V14.00,2013-01-03 23:46:00,
2013-01-03 18:51:00,31.6,31.6,29.41,WSW,256,2.7,2.7,100,0.00,,---,0.00,VWS V14.00,2013-01-03 23:51:00,
2013-01-03 18:56:00,31.6,31.6,29.41,West,272,2.7,4.0,100,0.00,,---,0.00,VWS V14.00,2013-01-03 23:56:00,
2013-01-03 19:01:00,31.6,31.6,29.41,WSW,257,3.1,3.1,100,0.00,,---,0.00,VWS V14.00,2013-01-04 00:01:00,
2013-01-03 19:06:00,31.6,31.6,29.41,West,264,3.1,3.6,100,0.00,,---,0.00,VWS V14.00,2013-01-04 00:06:00,
2013-01-03 19:11:00,31.6,31.6,29.41,WNW,289,0.0,4.0,100,0.00,,---,0.00,VWS V14.00,2013-01-04 00:11:00,
2013-01-03 19:16:00,31.6,31.6,29.41,SW,231,0.0,0.0,100,0.00,,---,0.00,VWS V14.00,2013-01-04 00:16:00,
2013-01-03 19:21:00,31.5,31.5,29.41,WSW,256,5.4,5.4,100,0.00,,---,0.00,VWS V14.00,2013-01-04 00:21:00,
2013-01-03 19:26:00,31.8,31.8,29.41,WSW,252,2.7,3.6,100,0.00,,---,0.00,VWS V14.00,2013-01-04 00:26:00,
2013-01-03 19:31:00,31.8,31.8,29.41,WSW,246,3.1,3.1,100,0.00,,---,0.00,VWS V14.00,2013-01-04 00:31:00,
2013-01-03 19:36:00,31.8,31.8,29.41,WSW,255,3.1,6.3,100,0.00,,---,0.00,VWS V14.00,2013-01-04 00:36:00,
2013-01-03 19:41:00,32.0,32.0,29.41,WSW,240,5.8,5.8,100,0.00,,---,0.00,VWS V14.00,2013-01-04 00:41:00,
2013-01-03 19:46:00,32.0,32.0,29.41,West,281,4.0,7.6,100,0.00,,---,0.00,VWS V14.00,2013-01-04 00:46:00,
2013-01-03 19:51:00,32.0,32.0,29.41,SSW,211,3.1,4.0,100,0.00,,---,0.00,VWS V14.00,2013-01-04 00:51:00,
2013-01-03 19:56:00,32.0,32.0,29.41,WSW,256,5.8,5.8,100,0.00,,---,0.00,VWS V14.00,2013-01-04 00:56:00,
2013-01-03 20:01:00,32.0,32.0,29.41,WSW,255,3.1,4.0,100,0.00,,---,0.00,VWS V14.00,2013-01-04 01:01:00,
2013-01-03 20:06:00,31.8,31.8,29.41,WSW,242,4.9,4.9,100,0.00,,---,0.00,VWS V14.00,2013-01-04 01:06:00,
2013-01-03 20:11:00,31.8,31.8,29.41,SW,236,4.9,5.4,100,0.00,,---,0.00,VWS V14.00,2013-01-04 01:11:00,
2013-01-03 20:16:00,31.6,31.6,29.41,SW,219,4.9,8.3,100,0.00,,---,0.00,VWS V14.00,2013-01-04 01:16:00,
2013-01-03 20:21:00,31.5,31.5,29.41,South,189,8.3,8.3,100,0.00,,---,0.00,VWS V14.00,2013-01-04 01:21:00,
2013-01-03 20:26:00,31.5,31.5,29.41,West,267,4.0,4.0,100,0.00,,---,0.00,VWS V14.00,2013-01-04 01:26:00,
2013-01-03 20:31:00,31.5,31.5,29.41,WNW,291,4.5,4.9,100,0.00,,---,0.00,VWS V14.00,2013-01-04 01:31:00,
2013-01-03 20:36:00,31.3,31.3,29.41,WSW,237,6.7,6.7,100,0.00,,---,0.00,VWS V14.00,2013-01-04 01:36:00,
2013-01-03 20:41:00,31.3,31.3,29.41,West,274,4.0,5.4,100,0.00,,---,0.00,VWS V14.00,2013-01-04 01:41:00,
2013-01-03 20:46:00,31.3,31.3,29.41,West,264,4.0,4.0,100,0.00,,---,0.00,VWS V14.00,2013-01-04 01:46:00,
2013-01-03 20:51:00,31.1,31.1,29.41,West,275,3.6,3.6,100,0.00,,---,0.00,VWS V14.00,2013-01-04 01:51:00,
2013-01-03 20:56:00,31.1,31.1,29.41,SW,217,5.8,5.8,100,0.00,,---,0.00,VWS V14.00,2013-01-04 01:56:00,
2013-01-03 21:01:00,31.1,31.1,29.41,West,279,3.6,3.6,100,0.00,,---,0.00,VWS V14.00,2013-01-04 02:01:00,
2013-01-03 21:06:00,30.9,30.9,29.41,WNW,286,4.0,4.0,100,0.00,,---,0.00,VWS V14.00,2013-01-04 02:06:00,
2013-01-03 21:11:00,30.7,30.7,29.41,SW,224,3.1,4.0,100,0.00,,---,0.00,VWS V14.00,2013-01-04 02:11:00,
2013-01-03 21:16:00,30.7,30.7,29.41,West,277,3.6,5.4,100,0.00,,---,0.00,VWS V14.00,2013-01-04 02:16:00,
2013-01-03 21:21:00,30.7,30.7,29.41,WNW,297,3.6,3.6,100,0.00,,---,0.00,VWS V14.00,2013-01-04 02:21:00,
2013-01-03 21:26:00,30.7,30.7,29.41,West,281,5.4,5.4,100,0.00,,---,0.00,VWS V14.00,2013-01-04 02:26:00,
2013-01-03 21:31:00,30.9,30.9,29.41,West,280,3.6,3.6,100,0.00,,---,0.00,VWS V14.00,2013-01-04 02:31:00,
2013-01-03 21:36:00,30.9,30.9,29.44,WNW,293,2.2,4.0,100,0.00,,---,0.00,VWS V14.00,2013-01-04 02:36:00,
2013-01-03 21:41:00,30.9,30.9,29.44,WNW,303,3.6,3.6,100,0.00,,---,0.00,VWS V14.00,2013-01-04 02:41:00,
2013-01-03 21:46:00,30.9,30.9,29.44,WNW,299,3.1,5.8,100,0.00,,---,0.00,VWS V14.00,2013-01-04 02:46:00,
2013-01-03 21:51:00,30.7,30.7,29.44,NW,316,3.6,5.8,100,0.00,,---,0.00,VWS V14.00,2013-01-04 02:51:00,
2013-01-03 21:56:00,30.7,30.7,29.44,NW,308,5.4,5.4,100,0.00,,---,0.00,VWS V14.00,2013-01-04 02:56:00,
2013-01-03 22:01:00,30.7,30.7,29.44,NNW,329,3.6,4.0,100,0.00,,---,0.00,VWS V14.00,2013-01-04 03:01:00,
2013-01-03 22:06:00,30.6,30.6,29.44,West,263,8.1,8.1,100,0.00,,---,0.00,VWS V14.00,2013-01-04 03:06:00,
2013-01-03 22:11:00,30.6,30.6,29.44,SW,218,4.9,4.9,100,0.00,,---,0.00,VWS V14.00,2013-01-04 03:11:00,
2013-01-03 22:16:00,30.4,30.4,29.44,WSW,246,3.6,4.9,100,0.00,,---,0.00,VWS V14.00,2013-01-04 03:16:00,
2013-01-03 22:21:00,30.4,30.4,29.44,WNW,291,6.3,6.3,100,0.00,,---,0.00,VWS V14.00,2013-01-04 03:21:00,
2013-01-03 22:26:00,30.2,30.2,29.44,WNW,301,5.8,6.3,100,0.00,,---,0.00,VWS V14.00,2013-01-04 03:26:00,
2013-01-03 22:31:00,30.2,30.2,29.44,West,274,3.6,4.0,100,0.00,,---,0.00,VWS V14.00,2013-01-04 03:31:00,
2013-01-03 22:36:00,30.2,30.2,29.44,WNW,293,5.4,5.4,100,0.00,,---,0.00,VWS V14.00,2013-01-04 03:36:00,
2013-01-03 22:41:00,30.2,30.2,29.44,WNW,303,4.0,4.5,100,0.00,,---,0.00,VWS V14.00,2013-01-04 03:41:00,
2013-01-03 22:46:00,30.2,30.2,29.44,West,270,3.1,3.6,100,0.00,,---,0.00,VWS V14.00,2013-01-04 03:46:00,
2013-01-03 22:51:00,30.0,30.0,29.44,West,273,6.3,6.3,100,0.00,,---,0.00,VWS V14.00,2013-01-04 03:51:00,
2013-01-03 22:56:00,30.2,30.2,29.44,SSW,210,3.1,4.0,100,0.00,,---,0.00,VWS V14.00,2013-01-04 03:56:00,
2013-01-03 23:01:00,30.2,30.2,29.44,WNW,294,2.7,3.6,100,0.00,,---,0.00,VWS V14.00,2013-01-04 04:01:00,
2013-01-03 23:06:00,30.0,30.0,29.44,WNW,283,3.6,3.6,100,0.00,,---,0.00,VWS V14.00,2013-01-04 04:06:00,
2013-01-03 23:11:00,30.0,30.0,29.44,West,278,2.7,2.7,100,0.00,,---,0.00,VWS V14.00,2013-01-04 04:11:00,
2013-01-03 23:16:00,30.0,30.0,29.44,West,280,0.0,0.0,100,0.00,,---,0.00,VWS V14.00,2013-01-04 04:16:00,
2013-01-03 23:21:00,30.0,30.0,29.44,WNW,303,5.8,5.8,100,0.00,,---,0.00,VWS V14.00,2013-01-04 04:21:00,
2013-01-03 23:26:00,30.0,30.0,29.44,WSW,255,3.6,3.6,100,0.00,,---,0.00,VWS V14.00,2013-01-04 04:26:00,
2013-01-03 23:31:00,30.0,30.0,29.44,WNW,287,0.0,0.0,100,0.00,,---,0.00,VWS V14.00,2013-01-04 04:31:00,
2013-01-03 23:36:00,30.0,30.0,29.44,WSW,249,0.0,0.0,100,0.00,,---,0.00,VWS V14.00,2013-01-04 04:36:00,
2013-01-03 23:41:00,30.0,30.0,29.44,West,260,3.1,3.1,100,0.00,,---,0.00,VWS V14.00,2013-01-04 04:41:00,
2013-01-03 23:46:00,30.0,30.0,29.44,WNW,288,2.7,2.7,100,0.00,,---,0.00,VWS V14.00,2013-01-04 04:46:00,
2013-01-03 23:51:00,30.0,30.0,29.44,WSW,238,4.0,4.0,100,0.00,,---,0.00,VWS V14.00,2013-01-04 04:51:00,
2013-01-03 23:56:00,30.0,30.0,29.44,WSW,251,0.0,0.0,100,0.00,,---,0.00,VWS V14.00,2013-01-04 04:56:00,